Hartwick Seminary, New York
Current Conditions -  °F | °C
As of 5:15 PM on Thursday 18 Dec 2014 (Local Time) from KNY0 Reporting Station
Overcast Overcast  
Wind Chill: 16°   Ceiling: 1300
Heat Index: 29°   Visibility: 10mi
Dew Point: 25°   Wind: 21mph
Humidity: 83%   Direction: 280°W
Pressure: 29.93"   Gusts: 28mph
Location:  42.7228°N, 74.8929°W
Report Text: KNY0 182215Z AUTO 28018G24KT 10SM OVC013 M01/M04 A2993 RMK AO2 T10151040
Loading
Personal Weather Stations






























Interactive Weather Map New forecast layout! Learn more

10-Day Weather Forecast

Advertisements
Track Severe Weather on mobile